AXM6359 WBKK-WBGG
Flight info
| Callsign | AXM6359 |
|---|---|
| Flight time | 1h 5m |
| Altitude | 38000 |
| Route | DULIM2F DULIM M646 BRU G580 PILAX |
| Aircraft | A20N/M-SDE2E3FGHIRWXY/LB1 |
Departure
| Time | 2026-04-30 14:13 |
|---|---|
| Airport | Kota Kinabalu International Airport (WBKK) |
Arrival
| Time | 2026-04-30 15:18 |
|---|---|
| Airport | Kuching International Airport (WBGG) |
| Time | Latitude | Longitude | Altitude | Speed | Heading |
|---|---|---|---|---|---|
| 2026-04-30 13:58 | 5.92632 | 116.05054 | 29 ft | 0 kts | 113° |
| 2026-04-30 14:03 | 5.92633 | 116.05052 | 28 ft | 2 kts | 113° |
| 2026-04-30 14:03 | 5.92638 | 116.05040 | 28 ft | 2 kts | 113° |
| 2026-04-30 14:03 | 5.92644 | 116.05027 | 28 ft | 2 kts | 113° |
| 2026-04-30 14:04 | 5.92649 | 116.05014 | 28 ft | 2 kts | 114° |
| 2026-04-30 14:04 | 5.92657 | 116.05001 | 28 ft | 2 kts | 136° |
| 2026-04-30 14:04 | 5.92669 | 116.04992 | 28 ft | 2 kts | 160° |
| 2026-04-30 14:04 | 5.92683 | 116.04988 | 28 ft | 2 kts | 182° |
| 2026-04-30 14:05 | 5.92685 | 116.04988 | 28 ft | 0 kts | 185° |
| 2026-04-30 14:07 | 5.92681 | 116.04988 | 28 ft | 2 kts | 185° |
| 2026-04-30 14:08 | 5.92647 | 116.04948 | 28 ft | 7 kts | 268° |
| 2026-04-30 14:08 | 5.92664 | 116.04898 | 28 ft | 8 kts | 277° |
| 2026-04-30 14:08 | 5.92563 | 116.04816 | 28 ft | 12 kts | 201° |
| 2026-04-30 14:09 | 5.92477 | 116.04782 | 28 ft | 15 kts | 201° |
| 2026-04-30 14:09 | 5.92382 | 116.04740 | 28 ft | 15 kts | 208° |
| 2026-04-30 14:09 | 5.92199 | 116.04661 | 28 ft | 14 kts | 201° |
| 2026-04-30 14:10 | 5.92101 | 116.04620 | 28 ft | 15 kts | 204° |
| 2026-04-30 14:10 | 5.92004 | 116.04578 | 28 ft | 13 kts | 202° |
| 2026-04-30 14:10 | 5.91912 | 116.04540 | 28 ft | 15 kts | 202° |
| 2026-04-30 14:10 | 5.91815 | 116.04499 | 28 ft | 12 kts | 205° |
| 2026-04-30 14:11 | 5.91791 | 116.04429 | 28 ft | 11 kts | 286° |
| 2026-04-30 14:11 | 5.91816 | 116.04370 | 28 ft | 11 kts | 295° |
| 2026-04-30 14:11 | 5.91844 | 116.04335 | 28 ft | 7 kts | 333° |
| 2026-04-30 14:11 | 5.91891 | 116.04343 | 28 ft | 7 kts | 25° |
| 2026-04-30 14:12 | 5.91943 | 116.04364 | 28 ft | 11 kts | 22° |
| 2026-04-30 14:12 | 5.92040 | 116.04405 | 28 ft | 21 kts | 21° |
| 2026-04-30 14:12 | 5.92392 | 116.04555 | 28 ft | 93 kts | 23° |
| 2026-04-30 14:12 | 5.93194 | 116.04882 | 39 ft | 153 kts | 20° |
| 2026-04-30 14:13 | 5.94176 | 116.05273 | 629 ft | 150 kts | 24° |
| 2026-04-30 14:13 | 5.95171 | 116.05667 | 1148 ft | 156 kts | 22° |
| 2026-04-30 14:13 | 5.96184 | 116.06044 | 1759 ft | 154 kts | 21° |
| 2026-04-30 14:13 | 5.97246 | 116.06416 | 2142 ft | 172 kts | 15° |
| 2026-04-30 14:14 | 5.98490 | 116.06314 | 2470 ft | 194 kts | 336° |
| 2026-04-30 14:14 | 5.99530 | 116.05362 | 2780 ft | 217 kts | 300° |
| 2026-04-30 14:14 | 5.99905 | 116.03824 | 3068 ft | 242 kts | 266° |
| 2026-04-30 14:14 | 5.99381 | 116.02158 | 3414 ft | 263 kts | 236° |
| 2026-04-30 14:15 | 5.98122 | 116.00756 | 3890 ft | 277 kts | 223° |
| 2026-04-30 14:15 | 5.96766 | 115.99428 | 4654 ft | 280 kts | 223° |
| 2026-04-30 14:15 | 5.95466 | 115.98156 | 5358 ft | 284 kts | 223° |
| 2026-04-30 14:15 | 5.93992 | 115.96815 | 6135 ft | 287 kts | 220° |
| 2026-04-30 14:16 | 5.92477 | 115.95487 | 6865 ft | 291 kts | 220° |
| 2026-04-30 14:16 | 5.90942 | 115.94142 | 7589 ft | 295 kts | 220° |
| 2026-04-30 14:16 | 5.89539 | 115.92909 | 8220 ft | 299 kts | 220° |
| 2026-04-30 14:16 | 5.88057 | 115.91602 | 8892 ft | 303 kts | 220° |
| 2026-04-30 14:17 | 5.86464 | 115.90196 | 9599 ft | 307 kts | 220° |
| 2026-04-30 14:17 | 5.84852 | 115.88774 | 10248 ft | 311 kts | 220° |
| 2026-04-30 14:17 | 5.83173 | 115.87295 | 10492 ft | 332 kts | 220° |
| 2026-04-30 14:17 | 5.81335 | 115.85677 | 10691 ft | 352 kts | 220° |
| 2026-04-30 14:18 | 5.79592 | 115.84142 | 11055 ft | 361 kts | 220° |
| 2026-04-30 14:18 | 5.77697 | 115.82471 | 11694 ft | 364 kts | 220° |
| 2026-04-30 14:18 | 5.73862 | 115.79090 | 12918 ft | 370 kts | 220° |
| 2026-04-30 14:19 | 5.69953 | 115.75645 | 14061 ft | 377 kts | 220° |
| 2026-04-30 14:19 | 5.67976 | 115.73902 | 14599 ft | 380 kts | 220° |
| 2026-04-30 14:19 | 5.66081 | 115.72233 | 15089 ft | 382 kts | 220° |
| 2026-04-30 14:20 | 5.64074 | 115.70464 | 15598 ft | 386 kts | 220° |
| 2026-04-30 14:20 | 5.62049 | 115.68681 | 16114 ft | 388 kts | 220° |
| 2026-04-30 14:20 | 5.58242 | 115.65329 | 17029 ft | 394 kts | 220° |
| 2026-04-30 14:21 | 5.56174 | 115.63508 | 17507 ft | 397 kts | 219° |
| 2026-04-30 14:21 | 5.54092 | 115.61676 | 17990 ft | 399 kts | 219° |
| 2026-04-30 14:21 | 5.49888 | 115.57976 | 18821 ft | 405 kts | 219° |
| 2026-04-30 14:22 | 5.47762 | 115.56106 | 19216 ft | 407 kts | 219° |
| 2026-04-30 14:22 | 5.43635 | 115.52151 | 20007 ft | 414 kts | 227° |
| 2026-04-30 14:22 | 5.41730 | 115.49976 | 20387 ft | 417 kts | 227° |
| 2026-04-30 14:23 | 5.37866 | 115.45589 | 21156 ft | 422 kts | 227° |
| 2026-04-30 14:23 | 5.33948 | 115.41151 | 21894 ft | 427 kts | 227° |
| 2026-04-30 14:24 | 5.30397 | 115.37129 | 22541 ft | 432 kts | 227° |
| 2026-04-30 14:24 | 5.28497 | 115.34977 | 22874 ft | 435 kts | 227° |
| 2026-04-30 14:25 | 5.24723 | 115.30703 | 23522 ft | 439 kts | 226° |
| 2026-04-30 14:25 | 5.20866 | 115.26336 | 24100 ft | 443 kts | 227° |
| 2026-04-30 14:26 | 5.16998 | 115.21957 | 24658 ft | 446 kts | 227° |
| 2026-04-30 14:26 | 5.14939 | 115.19627 | 24944 ft | 448 kts | 227° |
| 2026-04-30 14:26 | 5.10794 | 115.14936 | 25497 ft | 451 kts | 227° |
| 2026-04-30 14:27 | 5.08708 | 115.12576 | 25771 ft | 453 kts | 227° |
| 2026-04-30 14:27 | 5.06612 | 115.10204 | 26039 ft | 455 kts | 227° |
| 2026-04-30 14:27 | 5.04508 | 115.07825 | 26299 ft | 457 kts | 227° |
| 2026-04-30 14:28 | 5.00278 | 115.03041 | 26809 ft | 460 kts | 227° |
| 2026-04-30 14:28 | 4.98153 | 115.00637 | 27052 ft | 462 kts | 227° |
| 2026-04-30 14:28 | 4.96017 | 114.98222 | 27309 ft | 463 kts | 227° |
| 2026-04-30 14:28 | 4.93877 | 114.95803 | 27554 ft | 465 kts | 227° |
| 2026-04-30 14:29 | 4.89571 | 114.90934 | 28016 ft | 468 kts | 227° |
| 2026-04-30 14:29 | 4.86242 | 114.86639 | 28387 ft | 472 kts | 237° |
| 2026-04-30 14:30 | 4.80976 | 114.78231 | 29029 ft | 477 kts | 237° |
| 2026-04-30 14:31 | 4.77428 | 114.72593 | 29437 ft | 480 kts | 237° |
| 2026-04-30 14:31 | 4.73854 | 114.66916 | 29834 ft | 483 kts | 237° |
| 2026-04-30 14:31 | 4.72058 | 114.64062 | 30030 ft | 484 kts | 237° |
| 2026-04-30 14:32 | 4.68458 | 114.58343 | 30437 ft | 486 kts | 237° |
| 2026-04-30 14:32 | 4.66720 | 114.55583 | 30612 ft | 487 kts | 237° |
| 2026-04-30 14:32 | 4.64892 | 114.52680 | 30805 ft | 488 kts | 237° |
| 2026-04-30 14:33 | 4.63210 | 114.50009 | 31008 ft | 489 kts | 237° |
| 2026-04-30 14:33 | 4.59646 | 114.44350 | 31515 ft | 487 kts | 237° |
| 2026-04-30 14:33 | 4.57836 | 114.41477 | 31781 ft | 486 kts | 237° |
| 2026-04-30 14:34 | 4.56033 | 114.38615 | 32041 ft | 485 kts | 236° |
| 2026-04-30 14:34 | 4.54238 | 114.35767 | 32286 ft | 485 kts | 236° |
| 2026-04-30 14:34 | 4.52770 | 114.33438 | 32472 ft | 484 kts | 236° |
| 2026-04-30 14:34 | 4.51162 | 114.30885 | 32690 ft | 484 kts | 236° |
| 2026-04-30 14:35 | 4.47930 | 114.25759 | 33113 ft | 482 kts | 236° |
| 2026-04-30 14:35 | 4.46141 | 114.22922 | 33342 ft | 481 kts | 236° |
| 2026-04-30 14:35 | 4.44354 | 114.20087 | 33566 ft | 481 kts | 236° |
| 2026-04-30 14:36 | 4.42569 | 114.17257 | 33779 ft | 480 kts | 236° |
| 2026-04-30 14:36 | 4.40787 | 114.14432 | 33980 ft | 479 kts | 236° |
| 2026-04-30 14:36 | 4.39008 | 114.11611 | 34162 ft | 478 kts | 236° |
| 2026-04-30 14:36 | 4.37232 | 114.08795 | 34343 ft | 478 kts | 236° |
| 2026-04-30 14:37 | 4.35460 | 114.05985 | 34525 ft | 477 kts | 236° |
| 2026-04-30 14:37 | 4.33895 | 114.03505 | 34686 ft | 476 kts | 236° |
| 2026-04-30 14:37 | 4.32130 | 114.00709 | 34843 ft | 475 kts | 236° |
| 2026-04-30 14:37 | 4.30937 | 113.98817 | 34961 ft | 475 kts | 236° |
| 2026-04-30 14:38 | 4.29038 | 113.96115 | 35115 ft | 473 kts | 231° |
| 2026-04-30 14:38 | 4.27051 | 113.93492 | 35266 ft | 473 kts | 231° |
| 2026-04-30 14:38 | 4.25069 | 113.90864 | 35430 ft | 472 kts | 231° |
| 2026-04-30 14:38 | 4.23092 | 113.88239 | 35598 ft | 472 kts | 232° |
| 2026-04-30 14:39 | 4.21118 | 113.85615 | 35764 ft | 471 kts | 232° |
| 2026-04-30 14:39 | 4.19171 | 113.83029 | 35922 ft | 471 kts | 232° |
| 2026-04-30 14:39 | 4.17297 | 113.80541 | 36074 ft | 470 kts | 231° |
| 2026-04-30 14:40 | 4.13359 | 113.75312 | 36399 ft | 469 kts | 231° |
| 2026-04-30 14:40 | 4.11394 | 113.72704 | 36567 ft | 469 kts | 231° |
| 2026-04-30 14:40 | 4.09429 | 113.70096 | 36734 ft | 469 kts | 231° |
| 2026-04-30 14:40 | 4.07466 | 113.67491 | 36896 ft | 468 kts | 231° |
| 2026-04-30 14:41 | 4.05507 | 113.64891 | 37051 ft | 468 kts | 231° |
| 2026-04-30 14:41 | 4.03545 | 113.62288 | 37201 ft | 468 kts | 231° |
| 2026-04-30 14:41 | 4.01586 | 113.59689 | 37331 ft | 467 kts | 231° |
| 2026-04-30 14:41 | 3.99627 | 113.57091 | 37484 ft | 467 kts | 231° |
| 2026-04-30 14:42 | 3.97669 | 113.54495 | 37608 ft | 467 kts | 231° |
| 2026-04-30 14:42 | 3.95715 | 113.51903 | 37756 ft | 466 kts | 231° |
| 2026-04-30 14:42 | 3.93762 | 113.49313 | 37877 ft | 466 kts | 231° |
| 2026-04-30 14:42 | 3.91806 | 113.46720 | 37931 ft | 466 kts | 231° |
| 2026-04-30 14:43 | 3.87905 | 113.41546 | 37936 ft | 465 kts | 231° |
| 2026-04-30 14:43 | 3.84010 | 113.36383 | 37931 ft | 465 kts | 231° |
| 2026-04-30 14:44 | 3.80327 | 113.31502 | 37935 ft | 466 kts | 231° |
| 2026-04-30 14:44 | 3.76581 | 113.26540 | 37931 ft | 471 kts | 231° |
| 2026-04-30 14:45 | 3.72615 | 113.21284 | 37929 ft | 476 kts | 231° |
| 2026-04-30 14:45 | 3.68607 | 113.15975 | 37937 ft | 480 kts | 231° |
| 2026-04-30 14:46 | 3.64568 | 113.10625 | 37937 ft | 483 kts | 231° |
| 2026-04-30 14:46 | 3.60513 | 113.05254 | 37938 ft | 485 kts | 231° |
| 2026-04-30 14:47 | 3.56442 | 112.99863 | 37936 ft | 486 kts | 231° |
| 2026-04-30 14:47 | 3.52363 | 112.94463 | 37935 ft | 487 kts | 231° |
| 2026-04-30 14:48 | 3.48277 | 112.89054 | 37932 ft | 487 kts | 231° |
| 2026-04-30 14:48 | 3.44186 | 112.83640 | 37939 ft | 488 kts | 231° |
| 2026-04-30 14:49 | 3.40279 | 112.78088 | 37934 ft | 488 kts | 234° |
| 2026-04-30 14:49 | 3.36567 | 112.72567 | 37937 ft | 489 kts | 234° |
| 2026-04-30 14:50 | 3.30817 | 112.64137 | 37935 ft | 489 kts | 234° |
| 2026-04-30 14:51 | 3.25097 | 112.55797 | 37940 ft | 489 kts | 234° |
| 2026-04-30 14:52 | 3.19322 | 112.47378 | 37936 ft | 489 kts | 234° |
| 2026-04-30 14:52 | 3.13588 | 112.39019 | 37816 ft | 480 kts | 234° |
| 2026-04-30 14:53 | 3.10058 | 112.33871 | 37324 ft | 460 kts | 234° |
| 2026-04-30 14:53 | 3.08442 | 112.31518 | 37097 ft | 461 kts | 234° |
| 2026-04-30 14:54 | 3.04881 | 112.26334 | 36624 ft | 472 kts | 234° |
| 2026-04-30 14:54 | 3.01368 | 112.21216 | 36157 ft | 471 kts | 234° |
| 2026-04-30 14:55 | 2.97646 | 112.15794 | 35692 ft | 474 kts | 234° |
| 2026-04-30 14:55 | 2.95779 | 112.13075 | 35453 ft | 475 kts | 234° |
| 2026-04-30 14:55 | 2.92033 | 112.07620 | 34991 ft | 476 kts | 234° |
| 2026-04-30 14:56 | 2.88104 | 112.02280 | 34537 ft | 477 kts | 226° |
| 2026-04-30 14:56 | 2.83653 | 111.97340 | 34092 ft | 479 kts | 226° |
| 2026-04-30 14:57 | 2.81430 | 111.94859 | 33859 ft | 480 kts | 226° |
| 2026-04-30 14:57 | 2.77162 | 111.90096 | 33374 ft | 481 kts | 226° |
| 2026-04-30 14:58 | 2.72687 | 111.85104 | 32872 ft | 482 kts | 226° |
| 2026-04-30 14:58 | 2.70447 | 111.82605 | 32627 ft | 483 kts | 227° |
| 2026-04-30 14:58 | 2.66708 | 111.78437 | 32140 ft | 485 kts | 227° |
| 2026-04-30 14:59 | 2.61439 | 111.72562 | 31312 ft | 486 kts | 227° |
| 2026-04-30 15:00 | 2.54735 | 111.65089 | 30284 ft | 487 kts | 227° |
| 2026-04-30 15:00 | 2.50240 | 111.60078 | 29489 ft | 480 kts | 227° |
| 2026-04-30 15:01 | 2.46558 | 111.55972 | 28794 ft | 474 kts | 227° |
| 2026-04-30 15:01 | 2.44364 | 111.53527 | 28391 ft | 471 kts | 227° |
| 2026-04-30 15:01 | 2.39285 | 111.47866 | 27465 ft | 464 kts | 227° |
| 2026-04-30 15:02 | 2.37858 | 111.46277 | 27202 ft | 462 kts | 227° |
| 2026-04-30 15:02 | 2.35713 | 111.43887 | 26650 ft | 461 kts | 227° |
| 2026-04-30 15:03 | 2.29635 | 111.37102 | 24998 ft | 452 kts | 227° |
| 2026-04-30 15:03 | 2.25519 | 111.32428 | 23960 ft | 443 kts | 227° |
| 2026-04-30 15:04 | 2.21593 | 111.27966 | 22902 ft | 435 kts | 227° |
| 2026-04-30 15:04 | 2.15676 | 111.21260 | 21185 ft | 423 kts | 227° |
| 2026-04-30 15:05 | 2.10060 | 111.14896 | 19612 ft | 412 kts | 227° |
| 2026-04-30 15:06 | 2.06405 | 111.10755 | 18611 ft | 405 kts | 227° |
| 2026-04-30 15:06 | 2.02722 | 111.06583 | 17505 ft | 399 kts | 227° |
| 2026-04-30 15:07 | 1.99074 | 111.02450 | 16375 ft | 393 kts | 227° |
| 2026-04-30 15:07 | 1.95475 | 110.98373 | 15221 ft | 390 kts | 227° |
| 2026-04-30 15:08 | 1.91897 | 110.94321 | 14085 ft | 387 kts | 228° |
| 2026-04-30 15:08 | 1.86716 | 110.88452 | 12295 ft | 383 kts | 228° |
| 2026-04-30 15:09 | 1.83209 | 110.84480 | 11097 ft | 379 kts | 228° |
| 2026-04-30 15:09 | 1.79968 | 110.80809 | 10016 ft | 376 kts | 228° |
| 2026-04-30 15:10 | 1.76533 | 110.76920 | 8793 ft | 371 kts | 228° |
| 2026-04-30 15:11 | 1.69812 | 110.69312 | 6429 ft | 361 kts | 228° |
| 2026-04-30 15:11 | 1.66588 | 110.65661 | 5250 ft | 356 kts | 228° |
| 2026-04-30 15:12 | 1.62084 | 110.60562 | 3888 ft | 339 kts | 229° |
| 2026-04-30 15:13 | 1.59013 | 110.57084 | 3154 ft | 323 kts | 229° |
| 2026-04-30 15:14 | 1.54774 | 110.50616 | 2838 ft | 237 kts | 249° |
| 2026-04-30 15:14 | 1.53055 | 110.46241 | 2000 ft | 219 kts | 248° |
| 2026-04-30 15:16 | 1.50684 | 110.40241 | 825 ft | 154 kts | 248° |
| 2026-04-30 15:17 | 1.49291 | 110.36696 | 54 ft | 134 kts | 248° |
| 2026-04-30 15:18 | 1.49066 | 110.35968 | 60 ft | 12 kts | 320° |
| 2026-04-30 15:19 | 1.49088 | 110.35722 | 60 ft | 15 kts | 246° |